EmailTwitter


Observations de surface / Québec / CYUL (71627)

Régions: Québec | Canada | États-Unis | Europe | France | UK | Ailleurs
Station
Affichage
Infos & localisation pour CYUL (71627) | Aide pour décoder les METARs

Observations prises le 2018-04-26 à 05H00 UTC à MONTREAL INTL A, QB (CYUL)

Etat du ciel: couvert.

Température: 12.0 Celsius

Point de rosée: 11.0 Celsius

Humidité relative: 94%

Vents: Est à 7 km/h ou 4 noeuds.

Pression au niveau moyen de la mer: 100.31 kilopascals.

Calage altimétrique: 100.30 kilopascals ou 29.62 pouces de mercure.

Visibilité horizontale: 10.00 milles terrestres ou 16.00 kilomètres.

Hauteur du plafond: 152 mètres ( 500 pieds ).

Observation METAR:

CYUL 260500Z 08004KT 10SM BKN005 OVC014 12/11 A2962 RMK SF6SC2 SLP031 DENSITY

ALT 200FT=